Wetterdaten: Woche 14.04.14 - 20.04.14 (KW16)
Datum Zeit Temperatur Luftfeuchte Luftdruck Niederschlag Windrichtung Sonnenschein Solar Wind
14.04.2014 00:00 7,9 C 71 % 1016,2 hPa 0,0 l/m NW 0,00 h 0 W/m 3,9 km/h (1 Bft)
14.04.2014 01:00 8,1 C 68 % 1016,5 hPa 0,0 l/m NW 0,00 h 0 W/m 2,8 km/h (1 Bft)
14.04.2014 02:00 5,7 C 78 % 1016,4 hPa 0,0 l/m N 0,00 h 0 W/m 0,5 km/h (0 Bft)
14.04.2014 03:00 4,3 C 85 % 1016,5 hPa 0,0 l/m N 0,00 h 0 W/m 1,1 km/h (0 Bft)
14.04.2014 04:00 3,6 C 88 % 1016,5 hPa 0,0 l/m W-NW 0,00 h 0 W/m 2,0 km/h (1 Bft)
14.04.2014 05:00 5,1 C 85 % 1016,4 hPa 0,0 l/m W-NW 0,00 h 0 W/m 5,8 km/h (1 Bft)
14.04.2014 06:00 6,2 C 82 % 1016,3 hPa 0,0 l/m W 0,00 h 9 W/m 9,6 km/h (2 Bft)
14.04.2014 07:00 5,8 C 84 % 1016,6 hPa 0,0 l/m W 0,00 h 26 W/m 6,0 km/h (2 Bft)
14.04.2014 08:00 6,7 C 81 % 1016,6 hPa 0,0 l/m W 0,25 h 116 W/m 10,1 km/h (2 Bft)
14.04.2014 09:00 9,2 C 71 % 1016,5 hPa 0,0 l/m W-SW 0,92 h 399 W/m 19,8 km/h (4 Bft)
14.04.2014 10:00 10,2 C 65 % 1016,2 hPa 0,0 l/m W-NW 0,17 h 217 W/m 24,3 km/h (4 Bft)
14.04.2014 11:00 11,5 C 64 % 1015,6 hPa 0,0 l/m W-SW 0,58 h 575 W/m 25,7 km/h (4 Bft)
14.04.2014 12:00 12,3 C 61 % 1015,1 hPa 0,0 l/m W-NW 0,08 h 247 W/m 21,6 km/h (4 Bft)
14.04.2014 13:00 12,3 C 56 % 1014,6 hPa 0,0 l/m W-NW 0,00 h 194 W/m 26,8 km/h (4 Bft)
14.04.2014 14:00 13,7 C 50 % 1014,3 hPa 0,0 l/m W 0,42 h 519 W/m 33,3 km/h (5 Bft)
14.04.2014 15:00 14,1 C 49 % 1014,3 hPa 0,0 l/m W-NW 0,92 h 726 W/m 35,3 km/h (5 Bft)
14.04.2014 16:00 13,1 C 50 % 1014,4 hPa 0,0 l/m NW 0,83 h 542 W/m 35,9 km/h (5 Bft)
14.04.2014 17:00 12,7 C 43 % 1014,8 hPa 0,0 l/m W-NW 1,00 h 446 W/m 28,8 km/h (5 Bft)
14.04.2014 18:00 12,0 C 44 % 1014,9 hPa 0,0 l/m W-NW 1,00 h 261 W/m 28,7 km/h (4 Bft)
14.04.2014 19:00 10,3 C 49 % 1015,5 hPa 0,0 l/m W-NW 0,08 h 33 W/m 20,1 km/h (4 Bft)
14.04.2014 20:00 8,7 C 54 % 1016,2 hPa 0,0 l/m W-NW 0,00 h 6 W/m 14,2 km/h (3 Bft)
14.04.2014 21:00 7,7 C 59 % 1016,8 hPa 0,0 l/m W-NW 0,00 h 0 W/m 10,2 km/h (2 Bft)
14.04.2014 22:00 6,7 C 69 % 1017,8 hPa 0,0 l/m N-NO 0,00 h 0 W/m 16,1 km/h (3 Bft)
14.04.2014 23:00 5,8 C 77 % 1018,3 hPa 0,0 l/m N 0,00 h 0 W/m 9,0 km/h (2 Bft)
15.04.2014 00:00 5,7 C 76 % 1018,6 hPa 0,0 l/m N-NW 0,00 h 0 W/m 10,2 km/h (2 Bft)
15.04.2014 01:00 5,5 C 72 % 1018,9 hPa 0,0 l/m N-NW 0,00 h 0 W/m 17,3 km/h (3 Bft)
15.04.2014 02:00 4,9 C 69 % 1019,2 hPa 0,0 l/m N-NW 0,00 h 0 W/m 16,1 km/h (3 Bft)
15.04.2014 03:00 4,2 C 67 % 1019,6 hPa 0,0 l/m N-NW 0,00 h 0 W/m 18,2 km/h (3 Bft)
15.04.2014 04:00 2,9 C 75 % 1019,9 hPa 0,0 l/m N-NO 0,00 h 0 W/m 9,4 km/h (2 Bft)
15.04.2014 05:00 2,0 C 78 % 1020,4 hPa 0,0 l/m N 0,00 h 0 W/m 4,7 km/h (1 Bft)
15.04.2014 06:00 0,9 C 82 % 1020,8 hPa 0,0 l/m N 0,00 h 9 W/m 1,6 km/h (1 Bft)
15.04.2014 07:00 0,8 C 85 % 1021,6 hPa 0,0 l/m N 0,00 h 52 W/m 0,0 km/h (0 Bft)
15.04.2014 08:00 3,1 C 78 % 1022,0 hPa 0,0 l/m NW 0,08 h 101 W/m 6,7 km/h (2 Bft)
15.04.2014 09:00 3,8 C 73 % 1022,4 hPa 0,0 l/m NW 0,00 h 129 W/m 6,3 km/h (2 Bft)
15.04.2014 10:00 4,4 C 67 % 1022,7 hPa 0,0 l/m N-NW 0,00 h 156 W/m 9,4 km/h (2 Bft)
15.04.2014 11:00 5,2 C 59 % 1022,7 hPa 0,0 l/m N-NW 0,25 h 328 W/m 10,2 km/h (2 Bft)
15.04.2014 12:00 6,5 C 52 % 1022,4 hPa 0,0 l/m N-NO 0,33 h 504 W/m 12,9 km/h (3 Bft)
15.04.2014 13:00 7,0 C 49 % 1022,6 hPa 0,0 l/m N-NO 0,00 h 218 W/m 15,0 km/h (3 Bft)
15.04.2014 14:00 7,5 C 49 % 1022,7 hPa 0,0 l/m N-NO 0,42 h 557 W/m 16,4 km/h (3 Bft)
15.04.2014 15:00 8,7 C 46 % 1022,2 hPa 0,0 l/m N-NO 0,75 h 652 W/m 16,6 km/h (3 Bft)
15.04.2014 16:00 8,7 C 44 % 1022,1 hPa 0,0 l/m N-NO 0,58 h 517 W/m 14,9 km/h (3 Bft)
15.04.2014 17:00 8,0 C 46 % 1022,3 hPa 0,0 l/m N-NO 0,17 h 231 W/m 17,0 km/h (3 Bft)
15.04.2014 18:00 7,0 C 49 % 1022,6 hPa 0,0 l/m NO 0,50 h 167 W/m 18,1 km/h (3 Bft)
15.04.2014 19:00 5,9 C 52 % 1022,9 hPa 0,0 l/m N-NO 0,08 h 36 W/m 16,9 km/h (3 Bft)
15.04.2014 20:00 4,1 C 61 % 1023,5 hPa 0,0 l/m N-NO 0,08 h 6 W/m 3,3 km/h (1 Bft)
15.04.2014 21:00 2,9 C 69 % 1024,1 hPa 0,0 l/m N 0,00 h 0 W/m 1,3 km/h (1 Bft)
15.04.2014 22:00 2,4 C 69 % 1024,5 hPa 0,0 l/m N 0,00 h 0 W/m 2,7 km/h (1 Bft)
15.04.2014 23:00 1,2 C 74 % 1024,6 hPa 0,0 l/m N 0,00 h 0 W/m 1,2 km/h (1 Bft)
16.04.2014 00:00 0,9 C 76 % 1024,9 hPa 0,0 l/m N 0,00 h 0 W/m 0,3 km/h (0 Bft)
16.04.2014 01:00 2,1 C 73 % 1025,2 hPa 0,0 l/m N-NO 0,00 h 0 W/m 4,5 km/h (1 Bft)
16.04.2014 02:00 2,3 C 79 % 1025,3 hPa 0,0 l/m NO 0,00 h 0 W/m 3,9 km/h (1 Bft)
16.04.2014 03:00 1,0 C 87 % 1025,4 hPa 0,0 l/m N 0,00 h 0 W/m 0,4 km/h (0 Bft)
16.04.2014 04:00 -0,4 C 91 % 1025,7 hPa 0,0 l/m N 0,00 h 0 W/m 0,1 km/h (0 Bft)
16.04.2014 05:00 -0,9 C 93 % 1025,8 hPa 0,0 l/m N 0,00 h 0 W/m 0,4 km/h (0 Bft)
16.04.2014 06:00 -1,3 C 94 % 1026,2 hPa 0,0 l/m N 0,00 h 10 W/m 0,0 km/h (0 Bft)
16.04.2014 07:00 -0,6 C 94 % 1026,6 hPa 0,0 l/m N 0,00 h 65 W/m 0,1 km/h (0 Bft)
16.04.2014 08:00 1,9 C 88 % 1027,0 hPa 0,0 l/m NO 1,00 h 227 W/m 5,9 km/h (2 Bft)
16.04.2014 09:00 4,4 C 77 % 1027,2 hPa 0,0 l/m NO 1,00 h 419 W/m 13,6 km/h (3 Bft)
16.04.2014 10:00 6,3 C 65 % 1027,2 hPa 0,0 l/m NO 1,00 h 628 W/m 17,4 km/h (3 Bft)
16.04.2014 11:00 7,1 C 60 % 1027,1 hPa 0,0 l/m O-NO 0,67 h 510 W/m 16,2 km/h (3 Bft)
16.04.2014 12:00 8,2 C 55 % 1027,0 hPa 0,0 l/m O-SO 0,33 h 478 W/m 20,5 km/h (4 Bft)
16.04.2014 13:00 9,0 C 51 % 1026,8 hPa 0,0 l/m O-SO 0,50 h 631 W/m 19,7 km/h (3 Bft)
16.04.2014 14:00 9,0 C 50 % 1026,7 hPa 0,0 l/m O-NO 0,17 h 329 W/m 23,4 km/h (4 Bft)
16.04.2014 15:00 9,3 C 49 % 1026,7 hPa 0,0 l/m O 0,17 h 357 W/m 22,9 km/h (4 Bft)
16.04.2014 16:00 9,2 C 50 % 1026,5 hPa 0,0 l/m O-NO 0,33 h 309 W/m 17,3 km/h (3 Bft)
16.04.2014 17:00 10,0 C 47 % 1026,3 hPa 0,0 l/m O-NO 0,83 h 418 W/m 18,8 km/h (3 Bft)
16.04.2014 18:00 9,3 C 50 % 1026,2 hPa 0,0 l/m O-NO 0,75 h 211 W/m 18,0 km/h (3 Bft)
16.04.2014 19:00 8,4 C 54 % 1026,2 hPa 0,0 l/m O-NO 0,17 h 43 W/m 13,3 km/h (3 Bft)
16.04.2014 20:00 7,0 C 60 % 1026,4 hPa 0,0 l/m O 0,08 h 7 W/m 9,2 km/h (2 Bft)
16.04.2014 21:00 5,7 C 67 % 1026,5 hPa 0,0 l/m O-NO 0,00 h 0 W/m 5,5 km/h (1 Bft)
16.04.2014 22:00 3,9 C 75 % 1026,4 hPa 0,0 l/m N 0,00 h 0 W/m 1,9 km/h (1 Bft)
16.04.2014 23:00 2,2 C 82 % 1026,3 hPa 0,0 l/m N 0,00 h 0 W/m 0,0 km/h (0 Bft)
17.04.2014 00:00 1,5 C 86 % 1025,9 hPa 0,0 l/m N 0,00 h 0 W/m 0,0 km/h (0 Bft)
17.04.2014 01:00 1,0 C 88 % 1025,7 hPa 0,0 l/m N 0,00 h 0 W/m 0,8 km/h (0 Bft)
17.04.2014 02:00 0,5 C 89 % 1025,5 hPa 0,0 l/m N 0,00 h 0 W/m 1,6 km/h (1 Bft)
17.04.2014 03:00 0,1 C 91 % 1025,1 hPa 0,0 l/m N 0,00 h 0 W/m 2,3 km/h (1 Bft)
17.04.2014 04:00 -0,4 C 92 % 1024,6 hPa 0,0 l/m O-NO 0,00 h 0 W/m 2,9 km/h (1 Bft)
17.04.2014 05:00 -0,8 C 92 % 1024,3 hPa 0,0 l/m N 0,00 h 0 W/m 2,0 km/h (1 Bft)
17.04.2014 06:00 -1,3 C 93 % 1023,8 hPa 0,0 l/m N 0,00 h 10 W/m 0,7 km/h (0 Bft)
17.04.2014 07:00 0,1 C 91 % 1023,4 hPa 0,0 l/m O-NO 0,17 h 74 W/m 2,8 km/h (1 Bft)
17.04.2014 08:00 3,4 C 79 % 1023,5 hPa 0,0 l/m O-NO 1,00 h 253 W/m 6,4 km/h (2 Bft)
17.04.2014 09:00 5,7 C 69 % 1023,4 hPa 0,0 l/m NO 1,00 h 429 W/m 12,8 km/h (3 Bft)
17.04.2014 10:00 7,7 C 57 % 1022,9 hPa 0,0 l/m O-NO 1,00 h 590 W/m 18,4 km/h (3 Bft)
17.04.2014 11:00 9,4 C 48 % 1022,2 hPa 0,0 l/m NO 1,00 h 718 W/m 20,5 km/h (4 Bft)
17.04.2014 12:00 11,0 C 40 % 1021,6 hPa 0,0 l/m O-NO 1,00 h 801 W/m 19,0 km/h (3 Bft)
17.04.2014 13:00 12,6 C 34 % 1020,5 hPa 0,0 l/m O-SO 1,00 h 834 W/m 18,1 km/h (3 Bft)
17.04.2014 14:00 13,8 C 28 % 1019,4 hPa 0,0 l/m NO 1,00 h 812 W/m 17,2 km/h (3 Bft)
17.04.2014 15:00 14,4 C 27 % 1018,6 hPa 0,0 l/m NO 1,00 h 730 W/m 15,8 km/h (3 Bft)
17.04.2014 16:00 15,0 C 25 % 1017,6 hPa 0,0 l/m O 1,00 h 621 W/m 14,0 km/h (3 Bft)
17.04.2014 17:00 14,9 C 25 % 1017,0 hPa 0,0 l/m O-SO 1,00 h 422 W/m 10,3 km/h (2 Bft)
17.04.2014 18:00 14,2 C 26 % 1016,3 hPa 0,0 l/m O 0,92 h 229 W/m 6,2 km/h (2 Bft)
17.04.2014 19:00 12,9 C 29 % 1015,7 hPa 0,0 l/m O 0,25 h 55 W/m 2,5 km/h (1 Bft)
17.04.2014 20:00 9,7 C 42 % 1015,6 hPa 0,0 l/m N 0,08 h 11 W/m 0,1 km/h (0 Bft)
17.04.2014 21:00 7,0 C 49 % 1015,8 hPa 0,0 l/m N 0,00 h 0 W/m 0,4 km/h (0 Bft)
17.04.2014 22:00 5,2 C 57 % 1015,3 hPa 0,0 l/m N 0,00 h 0 W/m 0,0 km/h (0 Bft)
17.04.2014 23:00 3,9 C 64 % 1014,8 hPa 0,0 l/m N 0,00 h 0 W/m 0,0 km/h (0 Bft)
18.04.2014 00:00 2,6 C 71 % 1014,0 hPa 0,0 l/m N 0,00 h 0 W/m 0,0 km/h (0 Bft)
18.04.2014 01:00 2,0 C 74 % 1013,4 hPa 0,0 l/m N 0,00 h 0 W/m 0,3 km/h (0 Bft)
18.04.2014 02:00 1,4 C 77 % 1012,7 hPa 0,0 l/m N 0,00 h 0 W/m 0,3 km/h (0 Bft)
18.04.2014 03:00 1,0 C 78 % 1012,3 hPa 0,0 l/m N 0,00 h 0 W/m 0,3 km/h (0 Bft)
18.04.2014 04:00 1,0 C 81 % 1012,0 hPa 0,0 l/m N 0,00 h 0 W/m 0,0 km/h (0 Bft)
18.04.2014 05:00 1,9 C 79 % 1011,3 hPa 0,0 l/m N 0,00 h 0 W/m 0,0 km/h (0 Bft)
18.04.2014 06:00 3,0 C 80 % 1010,7 hPa 0,0 l/m O-SO 0,00 h 8 W/m 1,7 km/h (1 Bft)
18.04.2014 07:00 4,8 C 76 % 1010,4 hPa 0,0 l/m S 0,00 h 20 W/m 7,8 km/h (2 Bft)
18.04.2014 08:00 6,2 C 73 % 1010,3 hPa 0,0 l/m S-SO 0,00 h 73 W/m 5,6 km/h (1 Bft)
18.04.2014 09:00 8,5 C 61 % 1010,3 hPa 0,0 l/m W-NW 0,00 h 121 W/m 12,8 km/h (3 Bft)
18.04.2014 10:00 8,3 C 72 % 1010,3 hPa 0,0 l/m W-NW 0,00 h 97 W/m 17,4 km/h (3 Bft)
18.04.2014 11:00 7,2 C 84 % 1009,9 hPa 0,4 l/m W 0,00 h 54 W/m 18,5 km/h (3 Bft)
18.04.2014 12:00 6,8 C 88 % 1009,5 hPa 0,4 l/m W-SW 0,00 h 49 W/m 15,0 km/h (3 Bft)
18.04.2014 13:00 6,9 C 90 % 1009,3 hPa 0,4 l/m W-SW 0,00 h 48 W/m 10,3 km/h (2 Bft)
18.04.2014 14:00 5,2 C 92 % 1010,0 hPa 3,2 l/m NO 0,00 h 38 W/m 19,4 km/h (3 Bft)
18.04.2014 15:00 2,7 C 93 % 1010,8 hPa 1,4 l/m NO 0,00 h 53 W/m 10,8 km/h (2 Bft)
18.04.2014 16:00 2,3 C 95 % 1010,7 hPa 0,8 l/m NO 0,00 h 41 W/m 6,6 km/h (2 Bft)
18.04.2014 17:00 2,4 C 95 % 1010,8 hPa 0,2 l/m O 0,00 h 38 W/m 2,0 km/h (1 Bft)
18.04.2014 18:00 2,8 C 95 % 1011,4 hPa 0,0 l/m O-NO 0,00 h 39 W/m 2,3 km/h (1 Bft)
18.04.2014 19:00 3,0 C 95 % 1011,8 hPa 0,0 l/m S-SW 0,00 h 17 W/m 5,0 km/h (1 Bft)
18.04.2014 20:00 2,7 C 95 % 1012,5 hPa 0,6 l/m W-SW 0,00 h 5 W/m 3,5 km/h (1 Bft)
18.04.2014 21:00 1,7 C 96 % 1012,8 hPa 0,2 l/m W-SW 0,00 h 0 W/m 2,8 km/h (1 Bft)
18.04.2014 22:00 1,5 C 96 % 1012,8 hPa 0,2 l/m W-SW 0,00 h 0 W/m 1,9 km/h (1 Bft)
18.04.2014 23:00 1,2 C 96 % 1012,7 hPa 0,6 l/m N 0,00 h 0 W/m 0,4 km/h (0 Bft)
19.04.2014 00:00 1,2 C 97 % 1012,5 hPa 0,2 l/m N 0,00 h 0 W/m 0,4 km/h (0 Bft)
19.04.2014 01:00 1,4 C 97 % 1012,1 hPa 0,0 l/m N 0,00 h 0 W/m 0,4 km/h (0 Bft)
19.04.2014 02:00 1,6 C 97 % 1011,5 hPa 0,0 l/m N 0,00 h 0 W/m 0,8 km/h (0 Bft)
19.04.2014 03:00 1,7 C 97 % 1011,1 hPa 0,0 l/m W 0,00 h 0 W/m 4,0 km/h (1 Bft)
19.04.2014 04:00 2,1 C 98 % 1010,8 hPa 0,0 l/m O-NO 0,00 h 0 W/m 9,8 km/h (2 Bft)
19.04.2014 05:00 2,4 C 97 % 1010,3 hPa 0,0 l/m O-NO 0,00 h 0 W/m 13,2 km/h (3 Bft)
19.04.2014 06:00 2,5 C 97 % 1010,2 hPa 0,0 l/m NO 0,00 h 7 W/m 11,7 km/h (2 Bft)
19.04.2014 07:00 2,6 C 97 % 1010,1 hPa 0,0 l/m NO 0,00 h 9 W/m 11,7 km/h (2 Bft)
19.04.2014 08:00 2,7 C 97 % 1010,1 hPa 0,2 l/m NO 0,00 h 28 W/m 12,6 km/h (3 Bft)
19.04.2014 09:00 2,8 C 97 % 1010,1 hPa 0,0 l/m O-NO 0,00 h 31 W/m 15,8 km/h (3 Bft)
19.04.2014 10:00 3,4 C 97 % 1010,0 hPa 0,0 l/m O-NO 0,00 h 49 W/m 15,4 km/h (3 Bft)
19.04.2014 11:00 4,2 C 97 % 1010,1 hPa 0,0 l/m O-NO 0,00 h 66 W/m 15,7 km/h (3 Bft)
19.04.2014 12:00 4,7 C 95 % 1010,1 hPa 0,0 l/m O-NO 0,00 h 61 W/m 18,2 km/h (3 Bft)
19.04.2014 13:00 5,3 C 94 % 1009,7 hPa 0,0 l/m O-NO 0,00 h 66 W/m 15,0 km/h (3 Bft)
19.04.2014 14:00 6,6 C 91 % 1009,2 hPa 0,0 l/m O-SO 0,00 h 123 W/m 16,0 km/h (3 Bft)
19.04.2014 15:00 7,7 C 89 % 1008,6 hPa 0,0 l/m O-NO 0,00 h 106 W/m 15,0 km/h (3 Bft)
19.04.2014 16:00 8,4 C 88 % 1008,2 hPa 0,0 l/m O-NO 0,00 h 99 W/m 14,6 km/h (3 Bft)
19.04.2014 17:00 9,4 C 86 % 1008,1 hPa 0,0 l/m O-NO 0,00 h 87 W/m 15,6 km/h (3 Bft)
19.04.2014 18:00 9,8 C 85 % 1007,9 hPa 0,0 l/m O-NO 0,00 h 46 W/m 11,1 km/h (2 Bft)
19.04.2014 19:00 9,7 C 87 % 1007,7 hPa 0,0 l/m O 0,00 h 15 W/m 3,8 km/h (1 Bft)
19.04.2014 20:00 9,2 C 91 % 1007,7 hPa 0,0 l/m N 0,00 h 0 W/m 1,9 km/h (1 Bft)
19.04.2014 21:00 8,1 C 93 % 1007,7 hPa 0,0 l/m N 0,00 h 0 W/m 3,2 km/h (1 Bft)
19.04.2014 22:00 6,9 C 96 % 1007,5 hPa 0,0 l/m N 0,00 h 0 W/m 2,1 km/h (1 Bft)
19.04.2014 23:00 5,9 C 97 % 1007,0 hPa 0,0 l/m N 0,00 h 0 W/m 1,2 km/h (1 Bft)
20.04.2014 00:00 4,9 C 97 % 1006,8 hPa 0,0 l/m N 0,00 h 0 W/m 0,8 km/h (0 Bft)
20.04.2014 01:00 5,4 C 98 % 1006,3 hPa 0,0 l/m N 0,00 h 0 W/m 2,7 km/h (1 Bft)
20.04.2014 02:00 5,2 C 98 % 1005,5 hPa 0,0 l/m O 0,00 h 0 W/m 2,7 km/h (1 Bft)
20.04.2014 03:00 5,4 C 99 % 1005,3 hPa 0,0 l/m O 0,00 h 0 W/m 4,0 km/h (1 Bft)
20.04.2014 04:00 5,4 C 99 % 1004,7 hPa 0,0 l/m O 0,00 h 0 W/m 5,2 km/h (1 Bft)
20.04.2014 05:00 4,9 C 99 % 1004,6 hPa 0,0 l/m N 0,00 h 0 W/m 0,4 km/h (0 Bft)
20.04.2014 06:00 5,5 C 99 % 1004,8 hPa 0,0 l/m N 0,00 h 6 W/m 0,0 km/h (0 Bft)
20.04.2014 07:00 5,7 C 99 % 1005,2 hPa 0,0 l/m N 0,00 h 20 W/m 1,2 km/h (1 Bft)
20.04.2014 08:00 5,9 C 99 % 1005,2 hPa 0,0 l/m O 0,00 h 59 W/m 2,1 km/h (1 Bft)
20.04.2014 09:00 6,2 C 100 % 1005,4 hPa 0,0 l/m SO 0,00 h 67 W/m 4,4 km/h (1 Bft)
20.04.2014 10:00 6,4 C 99 % 1005,5 hPa 0,0 l/m S-SW 0,00 h 70 W/m 5,3 km/h (1 Bft)
20.04.2014 11:00 7,2 C 99 % 1005,4 hPa 0,0 l/m S-SW 0,00 h 83 W/m 4,5 km/h (1 Bft)
20.04.2014 12:00 8,0 C 98 % 1005,4 hPa 0,0 l/m S-SW 0,00 h 129 W/m 2,7 km/h (1 Bft)
20.04.2014 13:00 9,9 C 93 % 1004,9 hPa 0,0 l/m S-SW 0,33 h 439 W/m 5,9 km/h (2 Bft)
20.04.2014 14:00 13,0 C 82 % 1004,3 hPa 0,0 l/m S-SO 0,92 h 770 W/m 8,6 km/h (2 Bft)
20.04.2014 15:00 14,6 C 76 % 1003,8 hPa 0,0 l/m S-SW 0,58 h 586 W/m 9,1 km/h (2 Bft)
20.04.2014 16:00 14,3 C 67 % 1003,3 hPa 0,0 l/m O 0,33 h 278 W/m 15,0 km/h (3 Bft)
20.04.2014 17:00 15,4 C 59 % 1002,9 hPa 0,0 l/m O 1,00 h 444 W/m 19,2 km/h (3 Bft)
20.04.2014 18:00 15,1 C 60 % 1002,8 hPa 0,0 l/m O-SO 1,00 h 249 W/m 16,5 km/h (3 Bft)
20.04.2014 19:00 14,0 C 64 % 1002,7 hPa 0,0 l/m O-SO 0,25 h 55 W/m 8,0 km/h (2 Bft)
20.04.2014 20:00 11,6 C 76 % 1002,8 hPa 0,0 l/m N 0,08 h 9 W/m 0,8 km/h (0 Bft)
20.04.2014 21:00 9,4 C 85 % 1003,1 hPa 0,0 l/m N 0,00 h 0 W/m 0,5 km/h (0 Bft)
20.04.2014 22:00 8,0 C 89 % 1003,3 hPa 0,0 l/m N 0,00 h 0 W/m 0,7 km/h (0 Bft)
20.04.2014 23:00 7,3 C 91 % 1003,1 hPa 0,0 l/m N 0,00 h 0 W/m 2,3 km/h (1 Bft)
Min-Datum _ 16.04.14 17.04.14 20.04.14 - - - - 14.04.14
_ Min-Zeit 06:30 16:05 18:35 - - - - 00:00
Minimum _ -1,4 C 24 % 1002,6 hPa - - - - 0,0 km/h (0 Bft)
Max-Datum _ 20.04.14 20.04.14 16.04.14 18.04.14 - 14.04.14 15.04.14 14.04.14
_ Max-Zeit 17:20 09:20 10:20 14:10 - 08:35 12:55 16:25
Maximum _ 15,7 C 100 % 1027,4 hPa 3,2 l/m - 0,08 h 1027 W/m 48,3 km/h
W-NW (6 Bft)
Durchschnitt _ 6,1 C 75 % 1015,8 hPa #8,8 l/m O-NO #32:25 h 230 W/m 9,2 km/h (2 Bft)